ADDS METAR Data INFO
IDs: Format: Raw Decoded Include TAF

Data at: 2347 UTC 16 Oct 2017

KCFD 162335Z AUTO 36005KT 10SM CLR 21/05 A3023 RMK AO2 T02120051
KCFD 162315Z AUTO 36010KT 10SM CLR 23/05 A3022 RMK AO2 T02250050
KCFD 162255Z AUTO 01009G14KT 10SM CLR 23/05 A3022 RMK AO2 T02310048
KCFD 162235Z AUTO 36011G14KT 10SM CLR 24/04 A3022 RMK AO2 T02360044
KCFD 162215Z AUTO 34009G14KT 10SM CLR 24/05 A3022 RMK AO2 T02400049
KCFD 162155Z AUTO 35010KT 10SM CLR 24/05 A3022 RMK AO2 T02430051
KCFD 162135Z AUTO 36009G15KT 10SM CLR 25/05 A3022 RMK AO2 T02450046
KCFD 162115Z AUTO 01011KT 10SM CLR 25/04 A3022 RMK AO2 T02460037
KCFD 162055Z AUTO 35010G17KT 10SM CLR 24/04 A3023 RMK AO2 T02440042
KCFD 162035Z AUTO 35011G15KT 10SM CLR 24/05 A3023 RMK AO2 T02440045
KCFD 162015Z AUTO 35011G17KT 10SM CLR 24/05 A3024 RMK AO2 T02400048
KCFD 161955Z AUTO 36012G16KT 10SM CLR 24/05 A3025 RMK AO2 T02390054
KCFD 161935Z AUTO 34012G17KT 10SM CLR 24/06 A3025 RMK AO2 T02360058
KCFD 161915Z AUTO 34012G16KT 10SM CLR 23/06 A3027 RMK AO2 T02320058
KCFD 161855Z AUTO 32010G16KT 10SM CLR 23/06 A3028 RMK AO2 T02280063
KCFD 161835Z AUTO 36011G16KT 10SM CLR 23/06 A3030 RMK AO2 T02290061
KCFD 161815Z AUTO 35013KT 10SM CLR 22/06 A3031 RMK AO2 T02190062
KCFD 161755Z AUTO 35008KT 10SM CLR 21/07 A3033 RMK AO2 6//// T02130071 10213 20114
KCFD 161735Z AUTO 01011KT 10SM CLR 21/07 A3034 RMK AO2 T02060065
KCFD 161715Z AUTO 03008G14KT 10SM CLR 20/07 A3035 RMK AO2 T02040069
KCFD 161655Z AUTO 03010G14KT 360V060 10SM CLR 20/07 A3036 RMK AO2 T02020067
KCFD 161635Z AUTO 02011G15KT 10SM CLR 20/07 A3037 RMK AO2 T01970065
KCFD 161615Z AUTO 06009G14KT 10SM CLR 19/07 A3037 RMK AO2 T01940066
KCFD 161555Z AUTO 04009G16KT 10SM CLR 18/07 A3037 RMK AO2 T01830066 PNO
KCFD 161535Z AUTO 07012G15KT 10SM CLR 18/07 A3038 RMK AO2 T01800067
KCFD 161515Z AUTO 04013G18KT 10SM CLR 17/06 A3037 RMK AO2 T01740064 TSNO
KCFD 161455Z AUTO 04009G19KT 10SM CLR 17/06 A3037 RMK AO2 T01680063
KCFD 161435Z AUTO 05011G16KT 10SM CLR 16/06 A3037 RMK AO2 T01590062
KCFD 161415Z AUTO 04014KT 10SM CLR 15/06 A3037 RMK AO2 T01460062
KCFD 161355Z AUTO 01011G15KT 10SM CLR 14/06 A3036 RMK AO2 T01410063
KCFD 161335Z AUTO 01009KT 10SM CLR 13/06 A3035 RMK AO2 T01320062
KCFD 161315Z AUTO 36009KT 10SM CLR 13/06 A3034 RMK AO2 T01250061
KCFD 161255Z AUTO 35008KT 10SM CLR 12/06 A3033 RMK AO2 T01180060
KCFD 161235Z AUTO 35006KT 10SM CLR 12/06 A3033 RMK AO2 T01150060
KCFD 161215Z AUTO 36008KT 10SM CLR 12/06 A3033 RMK AO2 T01150060
KCFD 161155Z AUTO 36006KT 10SM CLR 12/06 A3033 RMK AO2 T01170060 10158 20117
KCFD 161135Z AUTO 36006KT 10SM CLR 12/06 A3032 RMK AO2 T01190060
KCFD 161115Z AUTO 36007KT 10SM CLR 12/06 A3031 RMK AO2 T01230060
KCFD 161055Z AUTO 36007KT 10SM CLR 12/06 A3030 RMK AO2 T01220061
KCFD 161035Z AUTO 34006KT 10SM CLR 12/06 A3030 RMK AO2 T01220062
KCFD 161015Z AUTO 35006KT 10SM CLR 13/06 A3029 RMK AO2 T01300061
KCFD 160955Z AUTO 35008KT 10SM CLR 13/06 A3028 RMK AO2 T01320061
KCFD 160935Z AUTO 35008KT 10SM CLR 13/06 A3028 RMK AO2 T01300063
KCFD 160915Z AUTO 34007KT 10SM CLR 13/06 A3028 RMK AO2 T01270064
KCFD 160855Z AUTO 34007KT 10SM CLR 13/06 A3028 RMK AO2 T01310062
KCFD 160835Z AUTO 35006KT 10SM CLR 14/06 A3028 RMK AO2 T01380060
KCFD 160815Z AUTO 35008KT 10SM CLR 14/06 A3028 RMK AO2 T01420059
KCFD 160755Z AUTO 36008KT 10SM CLR 14/06 A3029 RMK AO2 T01420058
KCFD 160735Z AUTO 35008KT 10SM CLR 15/06 A3029 RMK AO2 T01450058
KCFD 160715Z AUTO 36007KT 10SM CLR 15/06 A3029 RMK AO2 T01460057
KCFD 160655Z AUTO 36008KT 10SM CLR 15/06 A3029 RMK AO2 T01470060
KCFD 160635Z AUTO 35006KT 10SM CLR 15/06 A3029 RMK AO2 T01490061
KCFD 160615Z AUTO 35006KT 10SM CLR 15/06 A3029 RMK AO2 T01520060
KCFD 160555Z AUTO 35009KT 10SM CLR 16/06 A3028 RMK AO2 T01590057 10222 20159 402620159
KCFD 160535Z AUTO 35010G16KT 10SM CLR 16/06 A3028 RMK AO2 T01610060
KCFD 160515Z AUTO 36009G15KT 10SM CLR 16/06 A3028 RMK AO2 T01640058
KCFD 160455Z AUTO 36008KT 10SM CLR 17/06 A3029 RMK AO2 T01670060
KCFD 160435Z AUTO 36009KT 10SM CLR 17/06 A3029 RMK AO2 T01700060
KCFD 160415Z AUTO 36008KT 10SM CLR 17/06 A3029 RMK AO2 T01730061
KCFD 160355Z AUTO 36008KT 10SM CLR 18/06 A3029 RMK AO2 T01760063
KCFD 160335Z AUTO 36008KT 10SM CLR 18/07 A3028 RMK AO2 T01790065
KCFD 160315Z AUTO 36007KT 10SM CLR 18/07 A3028 RMK AO2 T01800068
KCFD 160255Z AUTO 36008KT 10SM CLR 19/07 A3027 RMK AO2 T01850071
KCFD 160235Z AUTO 36007KT 10SM CLR 19/08 A3025 RMK AO2 T01850075
KCFD 160215Z AUTO 35007KT 10SM CLR 19/08 A3025 RMK AO2 T01860080
KCFD 160155Z AUTO 35005KT 10SM CLR 19/08 A3025 RMK AO2 T01870082
KCFD 160135Z AUTO 34007KT 10SM CLR 19/09 A3024 RMK AO2 T01920085
KCFD 160115Z AUTO 34007KT 10SM CLR 20/09 A3023 RMK AO2 T02000085
KCFD 160055Z AUTO 35008G14KT 10SM CLR 21/08 A3023 RMK AO2 T02080083
KCFD 160035Z AUTO 35008KT 10SM CLR 21/08 A3022 RMK AO2 T02130083
KCFD 160015Z AUTO 35011G16KT 10SM CLR 22/09 A3021 RMK AO2 T02160089
KCFD 152355Z AUTO 34009KT 10SM CLR 22/09 A3020 RMK AO2 T02220093 10262 20219
KCFD 152335Z AUTO 36009G15KT 10SM CLR 23/10 A3019 RMK AO2 T02290098
KCFD 152315Z AUTO 35007G15KT 10SM CLR 23/11 A3018 RMK AO2 T02340105
KCFD 152255Z AUTO 35011G21KT 10SM CLR 24/11 A3018 RMK AO2 T02380112
KCFD 152235Z AUTO 36012G17KT 10SM CLR 24/12 A3017 RMK AO2 LTG DSNT S T02420124
KCFD 152215Z AUTO 01013G17KT 10SM CLR 25/13 A3016 RMK AO2 T02460132
KCFD 152155Z AUTO 35011G19KT 10SM CLR 25/14 A3015 RMK AO2 LTG DSNT S T02490135
KCFD 152135Z AUTO 34014G20KT 10SM CLR 25/14 A3015 RMK AO2 LTG DSNT S T02500140
KCFD 152115Z AUTO 35014G20KT 10SM CLR 24/14 A3015 RMK AO2 T02440143
KCFD 152055Z AUTO 36014G20KT 10SM CLR 25/15 A3016 RMK AO2 T02450150
KCFD 152035Z AUTO 34015G22KT 10SM SCT034 24/15 A3015 RMK AO2 LTG DSNT S T02410151
KCFD 152015Z AUTO 34014G21KT 10SM BKN034 25/16 A3015 RMK AO2 T02500157
KCFD 151955Z AUTO 34015G18KT 10SM BKN034 BKN046 26/16 A3015 RMK AO2 T02560162
KCFD 151935Z AUTO 35011G19KT 10SM SCT028 BKN040 BKN046 25/16 A3015 RMK AO2 T02510164
KCFD 151915Z AUTO 34010G18KT 10SM SCT026 OVC036 23/16 A3017 RMK AO2 T02320160
KCFD 151855Z AUTO 34009G17KT 10SM BKN024 OVC032 23/16 A3018 RMK AO2 T02260158
KCFD 151835Z AUTO 34014G19KT 10SM BKN024 OVC030 22/16 A3019 RMK AO2 T02220160
KCFD 151815Z AUTO 34013G18KT 10SM OVC022 22/16 A3019 RMK AO2 LTG DSNT S T02200161
KCFD 151755Z AUTO 33014G18KT 10SM OVC020 22/17 A3019 RMK AO2 LTG DSNT S T02220165 10252 20208
KCFD 151735Z AUTO 34014G21KT 10SM OVC018 23/17 A3019 RMK AO2 T02250169
KCFD 151715Z AUTO 36011G18KT 10SM OVC014 22/18 A3019 RMK AO2 LTG DSNT S T02220181
KCFD 151655Z AUTO 35012G18KT 10SM OVC012 22/20 A3019 RMK AO2 T02190195
KCFD 151635Z AUTO 35013G16KT 10SM OVC012 23/21 A3018 RMK AO2 T02270212
KCFD 151615Z AUTO 33011KT 10SM OVC014 24/22 A3017 RMK AO2 T02360221
KCFD 151555Z AUTO 33006KT 10SM OVC014 25/23 A3016 RMK AO2 T02470226
KCFD 151535Z AUTO 31008KT 10SM OVC014 25/23 A3015 RMK AO2 T02490229
KCFD 151515Z AUTO 31007KT 10SM OVC016 25/23 A3015 RMK AO2 T02510231
KCFD 151455Z AUTO 29006KT 10SM SCT009 SCT013 OVC018 25/23 A3014 RMK AO2 T02460234
KCFD 151435Z AUTO 29004KT 10SM BKN007 BKN018 BKN055 24/24 A3014 RMK AO2 T02420237
KCFD 151415Z AUTO 31004KT 7SM BKN005 BKN055 BKN070 24/24 A3014 RMK AO2 T02380238
KCFD 151355Z AUTO 00000KT 7SM BKN003 BKN018 BKN070 23/23 A3014 RMK AO2 T02260226
KCFD 151335Z AUTO 30005KT 1 3/4SM BR OVC003 22/22 A3012 RMK AO2 T02220222
KCFD 151315Z AUTO 30003KT 1/2SM FG OVC003 22/22 A3012 RMK AO2 T02180218
KCFD 151255Z AUTO 00000KT 1 1/4SM BR OVC003 22/22 A3011 RMK AO2 T02150215
KCFD 151235Z AUTO 00000KT 3SM BR BKN003 OVC007 21/21 A3010 RMK AO2 T02130213
KCFD 151215Z AUTO 33004KT 10SM BKN007 OVC012 21/21 A3011 RMK AO2 T02110211
KCFD 151155Z AUTO 00000KT 10SM SCT009 BKN013 21/21 A3009 RMK AO2 LTG DSNT NE 7//// T02080208 10242 20202